Time;durP1;ratioP1;P1;durP2;ratioP2;P2;SDS_P1;SDS_P2;PMS_P1;PMS_P2;Temp;Humidity;BMP_temperature;BMP_pressure;BME280_temperature;BME280_humidity;BME280_pressure;Samples;Min_cycle;Max_cycle;Signal;HPM_P1;HPM_P2
2022/09/03 00:00:22;;;;;;;3.87;1.50;;;18.60;97.60;;;;;;5028825;28;20427;-73
2022/09/03 00:03:10;;;;;;;3.33;1.23;;;18.60;97.70;;;;;;5028828;28;20415;-73
2022/09/03 00:05:46;;;;;;;3.00;1.70;;;18.60;97.90;;;;;;5028590;28;20422;-73
2022/09/03 00:08:34;;;;;;;2.40;1.60;;;18.60;98.20;;;;;;5027540;28;20519;-73
2022/09/03 00:11:21;;;;;;;4.10;1.57;;;18.60;98.50;;;;;;5035157;28;20593;-73
2022/09/03 00:14:03;;;;;;;2.20;1.50;;;18.70;98.90;;;;;;5036341;28;20444;-73
2022/09/03 00:16:45;;;;;;;4.97;1.50;;;18.70;99.20;;;;;;5035129;28;20918;-73
2022/09/03 00:19:16;;;;;;;3.00;1.40;;;18.70;99.60;;;;;;5035096;28;20498;-73
2022/09/03 00:21:46;;;;;;;2.70;1.70;;;18.70;99.80;;;;;;5034981;28;20434;-73
2022/09/03 00:24:15;;;;;;;2.17;1.37;;;18.70;99.90;;;;;;5035249;28;20417;-73
2022/09/03 00:26:45;;;;;;;4.70;2.10;;;18.70;99.90;;;;;;5035077;28;20429;-73
2022/09/03 00:29:16;;;;;;;1.77;1.63;;;18.60;99.90;;;;;;5033762;28;20422;-73
2022/09/03 00:31:46;;;;;;;2.17;1.50;;;18.50;99.90;;;;;;5035196;28;20532;-73
2022/09/03 00:34:28;;;;;;;3.63;1.70;;;18.50;99.90;;;;;;5035294;28;20426;-73
2022/09/03 00:36:53;;;;;;;1.60;1.50;;;18.50;99.90;;;;;;5033765;28;20508;-74
2022/09/03 00:39:22;;;;;;;3.90;1.40;;;18.50;99.90;;;;;;5035531;28;20480;-75
2022/09/03 00:42:30;;;;;;;5.10;1.70;;;18.50;99.90;;;;;;5035496;28;20571;-74
2022/09/03 00:45:22;;;;;;;2.90;1.80;;;18.50;99.90;;;;;;5035733;28;20406;-74
2022/09/03 00:48:25;;;;;;;1.80;1.70;;;18.50;99.90;;;;;;5035665;28;20411;-73
2022/09/03 00:51:24;;;;;;;7.80;1.77;;;18.50;99.90;;;;;;5026547;28;20548;-74
2022/09/03 00:54:03;;;;;;;9.20;1.97;;;18.50;99.90;;;;;;5035390;28;20901;-74
2022/09/03 00:56:34;;;;;;;4.30;1.80;;;18.50;99.90;;;;;;5035173;28;21392;-74
2022/09/03 00:59:15;;;;;;;1.97;1.87;;;18.60;99.90;;;;;;5034949;28;20909;-74
2022/09/03 01:01:58;;;;;;;3.53;1.60;;;18.60;99.90;;;;;;5034977;28;21271;-74
2022/09/03 01:05:00;;;;;;;1.50;1.40;;;18.50;99.90;;;;;;5034960;28;20416;-74
2022/09/03 01:07:48;;;;;;;1.90;1.50;;;18.50;99.90;;;;;;5034782;28;20418;-74
2022/09/03 01:10:24;;;;;;;2.57;1.50;;;18.40;99.90;;;;;;5034679;28;21134;-74
2022/09/03 01:13:12;;;;;;;1.93;1.70;;;18.40;99.90;;;;;;5034624;28;20448;-74
2022/09/03 01:16:11;;;;;;;4.90;1.80;;;18.40;99.90;;;;;;5034598;28;20547;-74
2022/09/03 01:18:47;;;;;;;3.77;1.60;;;18.30;99.90;;;;;;5034875;28;20413;-74
2022/09/03 01:21:30;;;;;;;1.80;1.63;;;18.30;99.90;;;;;;5032133;28;20794;-74
2022/09/03 01:24:11;;;;;;;1.73;1.63;;;18.20;99.90;;;;;;5032413;28;20933;-74
2022/09/03 01:26:40;;;;;;;2.67;1.93;;;18.20;99.90;;;;;;5032400;28;20761;-74
2022/09/03 01:29:25;;;;;;;3.70;2.10;;;18.20;99.90;;;;;;5032198;28;20419;-74
2022/09/03 01:31:58;;;;;;;4.83;1.67;;;18.10;99.90;;;;;;5032145;28;20500;-74
2022/09/03 01:34:52;;;;;;;2.20;2.00;;;18.20;99.90;;;;;;5032157;28;20518;-74
2022/09/03 01:37:34;;;;;;;4.20;1.73;;;18.10;99.90;;;;;;5031971;28;20464;-74
2022/09/03 01:40:29;;;;;;;2.27;2.07;;;18.00;99.90;;;;;;5032029;28;20963;-74
2022/09/03 01:43:03;;;;;;;1.97;1.80;;;18.00;99.90;;;;;;5031821;28;20449;-74
2022/09/03 01:45:58;;;;;;;5.07;2.10;;;18.00;99.90;;;;;;5031842;28;20429;-74
2022/09/03 01:48:45;;;;;;;3.20;2.40;;;18.00;99.90;;;;;;5030580;28;20450;-74
2022/09/03 01:51:24;;;;;;;3.50;1.97;;;17.90;99.90;;;;;;5031901;28;20439;-74
2022/09/03 01:54:11;;;;;;;2.53;2.10;;;17.90;99.90;;;;;;5032116;28;20464;-74
2022/09/03 01:56:42;;;;;;;3.30;2.30;;;17.90;99.90;;;;;;5031854;28;20501;-72
2022/09/03 01:59:19;;;;;;;2.33;2.10;;;17.90;99.90;;;;;;5032000;28;20411;-72
2022/09/03 02:01:55;;;;;;;1.77;1.50;;;18.00;99.90;;;;;;5031919;28;20426;-72
2022/09/03 02:04:24;;;;;;;6.03;2.07;;;18.00;99.90;;;;;;5032628;28;20522;-74
2022/09/03 02:06:51;;;;;;;3.73;2.07;;;18.10;99.90;;;;;;5031425;28;20908;-74
2022/09/03 02:09:18;;;;;;;5.30;2.10;;;18.10;99.90;;;;;;5031242;28;20443;-74
2022/09/03 02:11:49;;;;;;;2.67;2.30;;;18.00;99.90;;;;;;5031661;28;20442;-74
2022/09/03 02:14:15;;;;;;;4.30;2.07;;;18.00;99.90;;;;;;5031659;28;20422;-74
2022/09/03 02:16:43;;;;;;;2.90;2.40;;;18.00;99.90;;;;;;5031493;28;20466;-74
2022/09/03 02:19:15;;;;;;;3.30;2.37;;;18.00;99.90;;;;;;5031510;28;20268;-74
2022/09/03 02:21:49;;;;;;;2.83;2.53;;;18.00;99.90;;;;;;5031409;28;20453;-74
2022/09/03 02:24:15;;;;;;;2.40;2.03;;;18.00;99.90;;;;;;5031130;28;20429;-74
2022/09/03 02:26:40;;;;;;;5.50;2.77;;;17.90;99.90;;;;;;5031217;28;21231;-74
2022/09/03 02:29:06;;;;;;;5.80;2.77;;;17.90;99.90;;;;;;5031175;28;20191;-73
2022/09/03 02:31:32;;;;;;;4.40;3.03;;;17.80;99.90;;;;;;5030758;28;20211;-73
2022/09/03 02:33:58;;;;;;;6.73;3.07;;;17.80;99.90;;;;;;5030935;28;20419;-73
2022/09/03 02:36:28;;;;;;;2.37;2.17;;;17.80;99.90;;;;;;5030710;28;20303;-73
2022/09/03 02:38:54;;;;;;;2.93;2.10;;;17.70;99.90;;;;;;5030982;28;20526;-73
2022/09/03 02:41:19;;;;;;;2.10;1.87;;;17.70;99.90;;;;;;5031065;28;20524;-73
2022/09/03 02:44:04;;;;;;;2.73;2.53;;;17.70;99.90;;;;;;5031069;28;20192;-74
2022/09/03 02:46:45;;;;;;;5.70;3.20;;;17.60;99.90;;;;;;5029387;28;20271;-74
2022/09/03 02:49:11;;;;;;;4.13;2.57;;;17.60;99.90;;;;;;5029334;28;20435;-74
2022/09/03 02:51:40;;;;;;;3.97;2.30;;;17.60;99.90;;;;;;5029450;28;20717;-73
2022/09/03 02:54:06;;;;;;;3.70;2.10;;;17.50;99.90;;;;;;5028880;28;20469;-74
2022/09/03 02:56:32;;;;;;;2.67;2.47;;;17.40;99.90;;;;;;5029965;28;20967;-73
2022/09/03 02:58:59;;;;;;;3.20;2.90;;;17.40;99.90;;;;;;5028786;28;20431;-73
2022/09/03 03:01:25;;;;;;;7.87;3.27;;;17.30;99.90;;;;;;5029793;28;20214;-73
2022/09/03 03:03:51;;;;;;;3.90;2.60;;;17.20;99.90;;;;;;5029897;28;20433;-74
2022/09/03 03:06:19;;;;;;;3.87;2.73;;;17.20;99.90;;;;;;5029786;28;20948;-73
2022/09/03 03:08:45;;;;;;;3.97;3.00;;;17.20;99.90;;;;;;5029620;28;21099;-73
2022/09/03 03:11:14;;;;;;;3.43;3.13;;;17.20;99.90;;;;;;5029503;28;20503;-73
2022/09/03 03:13:39;;;;;;;3.00;2.80;;;17.20;99.90;;;;;;5029498;28;20439;-73
2022/09/03 03:16:05;;;;;;;3.47;3.17;;;17.20;99.90;;;;;;5028135;28;20521;-73
2022/09/03 03:18:33;;;;;;;4.00;3.10;;;17.20;99.90;;;;;;5029479;28;20317;-73
2022/09/03 03:21:10;;;;;;;3.70;3.10;;;17.20;99.90;;;;;;5029366;28;20442;-74
2022/09/03 03:23:36;;;;;;;4.63;3.17;;;17.20;99.90;;;;;;5029444;28;20412;-73
2022/09/03 03:26:05;;;;;;;4.43;3.10;;;17.10;99.90;;;;;;5030504;28;20499;-74
2022/09/03 03:28:33;;;;;;;4.30;3.40;;;17.10;99.90;;;;;;5029128;28;20781;-74
2022/09/03 03:31:06;;;;;;;4.83;2.80;;;17.10;99.90;;;;;;5030454;28;20959;-73
2022/09/03 03:33:32;;;;;;;4.37;3.50;;;17.10;99.90;;;;;;5030376;28;20943;-74
2022/09/03 03:35:58;;;;;;;6.10;3.80;;;17.20;99.90;;;;;;5030362;28;20472;-74
2022/09/03 03:38:23;;;;;;;3.83;3.50;;;17.20;99.90;;;;;;5030138;28;20472;-74
2022/09/03 03:40:49;;;;;;;4.67;3.13;;;17.20;99.90;;;;;;5029763;28;20457;-74
2022/09/03 03:43:15;;;;;;;3.43;3.13;;;17.20;99.90;;;;;;5029372;28;20195;-74
2022/09/03 03:45:40;;;;;;;13.10;3.00;;;17.20;99.90;;;;;;5043963;28;20195;-74
2022/09/03 03:48:06;;;;;;;3.60;3.00;;;17.30;99.90;;;;;;5044304;28;20190;-74
2022/09/03 03:50:31;;;;;;;5.20;3.57;;;17.30;99.90;;;;;;5045161;28;20241;-73
2022/09/03 03:53:01;;;;;;;3.20;2.90;;;17.30;99.90;;;;;;5042568;28;20198;-74
2022/09/03 03:55:26;;;;;;;3.27;2.77;;;17.30;99.90;;;;;;5027830;28;20222;-74
2022/09/03 03:57:52;;;;;;;6.20;3.37;;;17.30;99.90;;;;;;5028896;28;20422;-73
2022/09/03 04:00:18;;;;;;;8.40;2.80;;;17.40;99.90;;;;;;5028831;28;20861;-74
2022/09/03 04:02:43;;;;;;;3.47;3.10;;;17.40;99.90;;;;;;5027309;28;20430;-75
2022/09/03 04:05:09;;;;;;;3.20;2.40;;;17.40;99.90;;;;;;5028949;28;20195;-75
2022/09/03 04:07:35;;;;;;;3.03;2.60;;;17.40;99.90;;;;;;5027202;28;20183;-75
2022/09/03 04:10:00;;;;;;;2.47;2.27;;;17.40;99.90;;;;;;5028811;28;20218;-73
2022/09/03 04:12:26;;;;;;;3.80;2.60;;;17.40;99.90;;;;;;5028553;28;20295;-73
2022/09/03 04:14:52;;;;;;;3.20;2.20;;;17.40;99.90;;;;;;5028600;28;20377;-74
2022/09/03 04:17:17;;;;;;;4.20;2.70;;;17.40;99.90;;;;;;5028540;28;20512;-73
2022/09/03 04:19:44;;;;;;;3.60;2.93;;;17.40;99.90;;;;;;5028494;28;20187;-73
2022/09/03 04:22:10;;;;;;;4.10;2.40;;;17.30;99.90;;;;;;5028564;28;20203;-73
2022/09/03 04:24:37;;;;;;;3.37;3.03;;;17.30;99.90;;;;;;5028529;28;20510;-73
2022/09/03 04:27:03;;;;;;;3.00;2.30;;;17.40;99.90;;;;;;5028339;28;20430;-74
2022/09/03 04:29:30;;;;;;;3.37;3.07;;;17.30;99.90;;;;;;5028262;28;20806;-73
2022/09/03 04:34:39;;;;;;;5.00;3.03;;;17.40;99.90;;;;;;5028541;28;20429;-74
2022/09/03 04:37:05;;;;;;;9.60;2.40;;;17.40;99.90;;;;;;5028193;28;20455;-74
2022/09/03 04:39:30;;;;;;;4.80;3.03;;;17.40;99.90;;;;;;5028210;28;20261;-75
2022/09/03 04:41:56;;;;;;;2.70;2.50;;;17.50;99.90;;;;;;5026654;28;20211;-75
2022/09/03 04:44:22;;;;;;;7.43;3.10;;;17.50;99.90;;;;;;5028315;28;20190;-75
2022/09/03 04:46:48;;;;;;;2.63;2.43;;;17.50;99.90;;;;;;5026834;28;20195;-76
2022/09/03 04:49:14;;;;;;;2.67;2.40;;;17.40;99.90;;;;;;5027371;28;20271;-76
2022/09/03 04:51:39;;;;;;;3.00;2.70;;;17.40;99.90;;;;;;5028690;28;20936;-76
2022/09/03 04:54:05;;;;;;;3.23;2.87;;;17.40;99.90;;;;;;5026844;28;20188;-78
2022/09/03 04:56:33;;;;;;;3.93;2.50;;;17.40;99.90;;;;;;5028828;28;20270;-76
2022/09/03 04:59:04;;;;;;;3.93;2.60;;;17.40;99.90;;;;;;5030777;28;20198;-77
2022/09/03 05:01:32;;;;;;;4.33;3.20;;;17.40;99.90;;;;;;5031968;28;20525;-76
2022/09/03 05:03:59;;;;;;;3.70;2.93;;;17.40;99.90;;;;;;5030523;28;20422;-76
2022/09/03 05:06:26;;;;;;;3.57;3.03;;;17.40;99.90;;;;;;5032109;28;20423;-77
2022/09/03 05:08:53;;;;;;;3.30;2.97;;;17.40;99.90;;;;;;5030605;28;20441;-77
2022/09/03 05:11:19;;;;;;;4.47;2.93;;;17.40;99.90;;;;;;5030509;28;20581;-77
2022/09/03 05:13:49;;;;;;;4.23;2.87;;;17.40;99.90;;;;;;5030610;28;20437;-77
2022/09/03 05:16:16;;;;;;;6.97;3.27;;;17.40;99.90;;;;;;5031904;28;20496;-77
2022/09/03 05:18:43;;;;;;;2.57;2.37;;;17.50;99.90;;;;;;5032098;28;20782;-77
2022/09/03 05:21:11;;;;;;;7.93;3.10;;;17.50;99.90;;;;;;5031756;28;20920;-76
2022/09/03 05:23:39;;;;;;;2.73;2.43;;;17.60;99.90;;;;;;5030427;28;20422;-76
2022/09/03 05:26:09;;;;;;;3.30;3.00;;;17.50;99.90;;;;;;5030435;28;20429;-77
2022/09/03 05:28:37;;;;;;;3.43;3.13;;;17.50;99.90;;;;;;5031581;28;20812;-77
2022/09/03 05:31:07;;;;;;;2.80;2.60;;;17.50;99.90;;;;;;5031881;28;20438;-77
2022/09/03 05:33:37;;;;;;;6.07;2.90;;;17.50;99.90;;;;;;5030182;28;20431;-76
2022/09/03 05:36:09;;;;;;;3.10;2.87;;;17.50;99.90;;;;;;5031203;28;20631;-75
2022/09/03 05:38:35;;;;;;;4.07;3.60;;;17.50;99.90;;;;;;5031581;28;20428;-75
2022/09/03 05:41:03;;;;;;;2.83;2.63;;;17.50;99.90;;;;;;5031980;28;20436;-75
2022/09/03 05:43:29;;;;;;;4.30;3.00;;;17.50;99.90;;;;;;5032137;28;20426;-75
2022/09/03 05:45:59;;;;;;;3.43;3.00;;;17.50;99.90;;;;;;5029579;28;20434;-75
2022/09/03 05:48:26;;;;;;;3.40;2.40;;;17.50;99.90;;;;;;5030829;28;20422;-75
2022/09/03 05:51:09;;;;;;;2.90;2.63;;;17.50;99.90;;;;;;5030911;28;20457;-75
2022/09/03 05:53:36;;;;;;;4.20;2.70;;;17.50;99.90;;;;;;5030815;28;20438;-75
2022/09/03 05:56:11;;;;;;;5.30;3.03;;;17.40;99.90;;;;;;5029190;28;20512;-75
2022/09/03 05:58:43;;;;;;;4.47;3.03;;;17.40;99.90;;;;;;5029288;28;20429;-75
2022/09/03 06:01:14;;;;;;;2.87;2.57;;;17.40;99.90;;;;;;5030701;28;20450;-75
2022/09/03 06:03:41;;;;;;;3.37;3.07;;;17.40;99.90;;;;;;5031287;28;20845;-75
2022/09/03 06:06:07;;;;;;;4.00;3.00;;;17.30;99.90;;;;;;5029013;28;20501;-75
2022/09/03 06:08:34;;;;;;;4.20;3.50;;;17.30;99.90;;;;;;5030215;28;20424;-75
2022/09/03 06:11:02;;;;;;;4.73;2.90;;;17.30;99.90;;;;;;5030311;28;20799;-75
2022/09/03 06:13:29;;;;;;;4.20;2.80;;;17.40;99.90;;;;;;5030425;28;20533;-75
2022/09/03 06:16:05;;;;;;;2.80;2.60;;;17.40;99.90;;;;;;5028693;28;20473;-75
2022/09/03 06:18:30;;;;;;;5.83;2.80;;;17.40;99.90;;;;;;5030312;28;20424;-75
2022/09/03 06:20:58;;;;;;;4.00;3.00;;;17.40;99.90;;;;;;5030116;28;20917;-75
2022/09/03 06:23:24;;;;;;;4.43;2.63;;;17.40;99.90;;;;;;5030185;28;20661;-75
2022/09/03 06:26:13;;;;;;;3.03;2.83;;;17.50;99.90;;;;;;5028706;28;20460;-75
2022/09/03 06:28:47;;;;;;;3.20;2.90;;;17.40;99.90;;;;;;5028543;28;20487;-75
2022/09/03 06:31:14;;;;;;;3.00;2.73;;;17.40;99.90;;;;;;5012897;28;20457;-75
2022/09/03 06:33:41;;;;;;;3.63;2.97;;;17.40;99.90;;;;;;5029945;28;20445;-75
2022/09/03 06:36:09;;;;;;;3.10;2.80;;;17.40;99.90;;;;;;5029886;28;20573;-74
2022/09/03 06:38:37;;;;;;;4.47;3.20;;;17.50;99.90;;;;;;5030085;28;20428;-75
2022/09/03 06:41:09;;;;;;;4.80;2.60;;;17.60;99.90;;;;;;5029960;28;20803;-75
2022/09/03 06:43:37;;;;;;;3.50;2.47;;;17.60;99.90;;;;;;5030010;28;20418;-75
2022/09/03 06:46:08;;;;;;;3.93;2.50;;;17.70;99.90;;;;;;5029697;28;20798;-75
2022/09/03 06:48:35;;;;;;;3.53;3.23;;;17.70;99.90;;;;;;5029779;28;20414;-75
2022/09/03 06:51:05;;;;;;;4.00;2.47;;;17.80;99.90;;;;;;5029620;28;20439;-75
2022/09/03 06:53:35;;;;;;;10.87;3.20;;;17.70;99.90;;;;;;5028276;28;20466;-75
2022/09/03 06:56:04;;;;;;;3.00;2.80;;;17.80;99.90;;;;;;5029503;28;20466;-75
2022/09/03 06:58:32;;;;;;;4.30;2.60;;;17.80;99.90;;;;;;5029425;28;20420;-75
2022/09/03 07:01:15;;;;;;;5.17;3.00;;;17.80;99.90;;;;;;5028071;28;20483;-75
2022/09/03 07:03:42;;;;;;;3.27;2.60;;;17.90;99.90;;;;;;5029456;28;20424;-75
2022/09/03 07:06:12;;;;;;;2.60;2.30;;;17.90;99.90;;;;;;5029459;28;20428;-75
2022/09/03 07:08:38;;;;;;;4.50;1.97;;;18.10;99.90;;;;;;5029462;28;20430;-75
2022/09/03 07:11:11;;;;;;;2.33;2.13;;;18.10;99.90;;;;;;5028679;28;20519;-75
2022/09/03 07:13:47;;;;;;;3.97;2.20;;;18.10;99.90;;;;;;5028515;28;20449;-74
2022/09/03 07:16:15;;;;;;;3.50;2.27;;;18.10;99.90;;;;;;5028687;28;20986;-75
2022/09/03 07:18:45;;;;;;;2.57;2.37;;;18.20;99.90;;;;;;5026227;28;21271;-75
2022/09/03 07:21:17;;;;;;;3.00;2.67;;;18.20;99.90;;;;;;5028661;28;20470;-75
2022/09/03 07:23:43;;;;;;;3.63;2.73;;;18.30;99.90;;;;;;5028172;28;20421;-75
2022/09/03 07:26:12;;;;;;;2.70;2.50;;;18.40;99.90;;;;;;5028390;28;20431;-75
2022/09/03 07:28:39;;;;;;;2.73;2.53;;;18.40;99.90;;;;;;5028497;28;20456;-75
2022/09/03 07:31:10;;;;;;;3.30;2.57;;;18.50;99.90;;;;;;5028437;28;20440;-75
2022/09/03 07:33:37;;;;;;;3.30;2.90;;;18.50;99.90;;;;;;5029453;28;20426;-74
2022/09/03 07:36:13;;;;;;;5.03;2.50;;;18.60;99.90;;;;;;5028355;28;21270;-75
2022/09/03 07:38:39;;;;;;;7.27;2.40;;;18.70;99.90;;;;;;5028657;28;20440;-75
2022/09/03 07:41:07;;;;;;;7.03;2.90;;;18.70;99.90;;;;;;5026738;28;20479;-75
2022/09/03 07:43:42;;;;;;;3.50;2.43;;;18.70;99.90;;;;;;5027435;28;20790;-75
2022/09/03 07:46:15;;;;;;;2.40;2.20;;;18.70;99.90;;;;;;5027309;28;20929;-75
2022/09/03 07:48:42;;;;;;;2.80;2.40;;;18.80;99.90;;;;;;5027348;28;20457;-75
2022/09/03 07:51:08;;;;;;;2.40;2.20;;;18.80;99.90;;;;;;5027605;28;20435;-75
2022/09/03 07:53:34;;;;;;;4.60;2.83;;;18.80;99.90;;;;;;5028122;28;20422;-75
2022/09/03 07:56:06;;;;;;;4.03;3.20;;;18.80;99.90;;;;;;5028734;28;20575;-75
2022/09/03 07:58:33;;;;;;;2.13;2.03;;;18.80;99.90;;;;;;5028485;28;20784;-75
2022/09/03 08:01:04;;;;;;;3.90;2.30;;;18.90;99.90;;;;;;5028483;28;20435;-75
2022/09/03 08:03:30;;;;;;;5.43;2.30;;;18.90;99.90;;;;;;5026917;28;20434;-75
2022/09/03 08:06:01;;;;;;;2.23;2.03;;;19.00;99.90;;;;;;5026865;28;20422;-75
2022/09/03 08:08:26;;;;;;;3.17;2.70;;;19.10;99.90;;;;;;5028631;28;20517;-74
2022/09/03 08:10:52;;;;;;;2.60;2.40;;;19.10;99.90;;;;;;5028481;28;20863;-74
2022/09/03 08:13:18;;;;;;;3.20;2.77;;;19.20;99.90;;;;;;5028521;28;20207;-74
2022/09/03 08:15:53;;;;;;;2.60;2.33;;;19.30;99.90;;;;;;5028617;28;20270;-75
2022/09/03 08:18:19;;;;;;;3.30;2.47;;;19.40;99.90;;;;;;5028772;28;20166;-74
2022/09/03 08:20:45;;;;;;;2.80;2.60;;;19.50;99.90;;;;;;5010578;28;20446;-75
2022/09/03 08:23:11;;;;;;;3.00;2.53;;;19.70;99.90;;;;;;5028422;28;20179;-75
2022/09/03 08:25:37;;;;;;;5.93;2.50;;;19.70;99.90;;;;;;5026662;28;20439;-75
2022/09/03 08:28:02;;;;;;;3.00;2.77;;;19.70;99.90;;;;;;5028201;28;20198;-75
2022/09/03 08:30:28;;;;;;;4.83;2.90;;;19.70;99.90;;;;;;5029992;28;20703;-75
2022/09/03 08:32:54;;;;;;;5.00;2.80;;;19.80;99.90;;;;;;5031660;28;20434;-75
2022/09/03 08:35:21;;;;;;;2.77;2.57;;;19.90;99.90;;;;;;5031651;28;20731;-75
2022/09/03 08:37:50;;;;;;;2.70;2.50;;;20.00;99.90;;;;;;5031401;28;20419;-75
2022/09/03 08:40:16;;;;;;;3.40;2.70;;;20.30;99.90;;;;;;5031349;28;20447;-75
2022/09/03 08:42:56;;;;;;;8.00;2.77;;;20.40;99.90;;;;;;5031313;28;21030;-75
2022/09/03 08:45:21;;;;;;;3.67;2.70;;;20.50;99.90;;;;;;5031257;28;20456;-75
2022/09/03 08:47:53;;;;;;;4.17;3.07;;;20.50;99.90;;;;;;5029990;28;20851;-75
2022/09/03 08:50:37;;;;;;;2.87;2.67;;;20.40;99.90;;;;;;5029673;28;20230;-75
2022/09/03 08:53:10;;;;;;;6.33;2.70;;;20.30;99.90;;;;;;5031163;28;20995;-75
2022/09/03 08:55:49;;;;;;;2.60;2.20;;;20.40;99.90;;;;;;5030919;28;20486;-75
2022/09/03 08:58:37;;;;;;;5.03;3.20;;;20.60;99.90;;;;;;5031035;28;20414;-75
2022/09/03 09:01:18;;;;;;;3.57;2.83;;;21.00;99.90;;;;;;5030752;28;20439;-75
2022/09/03 09:04:02;;;;;;;5.23;2.90;;;21.30;99.90;;;;;;5030767;28;20416;-75
2022/09/03 09:06:34;;;;;;;11.43;4.10;;;21.80;99.90;;;;;;5030695;28;20958;-75
2022/09/03 09:09:22;;;;;;;7.40;2.70;;;21.90;99.90;;;;;;5030583;28;20450;-75
2022/09/03 09:12:15;;;;;;;4.23;3.67;;;21.90;99.90;;;;;;5028957;28;20447;-75
2022/09/03 09:15:04;;;;;;;3.17;2.90;;;21.90;99.90;;;;;;5030806;28;20491;-75
2022/09/03 09:18:01;;;;;;;4.83;2.83;;;21.80;99.90;;;;;;5030768;28;20912;-75
2022/09/03 09:20:55;;;;;;;5.03;3.37;;;21.90;99.90;;;;;;5031400;28;20879;-75
2022/09/03 09:23:31;;;;;;;5.53;3.40;;;22.00;99.90;;;;;;5031054;28;20411;-75
2022/09/03 09:26:02;;;;;;;2.90;2.70;;;22.10;99.90;;;;;;5031250;28;20761;-75
2022/09/03 09:28:36;;;;;;;5.43;3.00;;;22.80;99.90;;;;;;5031493;28;20418;-75
2022/09/03 09:31:04;;;;;;;3.17;2.67;;;23.50;99.90;;;;;;5030527;28;20431;-75
2022/09/03 09:33:31;;;;;;;8.20;4.30;;;24.30;99.90;;;;;;5030435;28;20412;-76
2022/09/03 09:36:08;;;;;;;5.73;3.40;;;25.20;99.90;;;;;;5030469;28;20479;-76
2022/09/03 09:38:35;;;;;;;3.37;2.80;;;25.70;99.90;;;;;;5030352;28;20517;-75
2022/09/03 09:41:19;;;;;;;4.70;3.10;;;25.80;99.90;;;;;;5029706;28;20476;-76
2022/09/03 09:43:48;;;;;;;8.50;3.27;;;25.40;99.90;;;;;;5028983;28;20470;-77
2022/09/03 09:46:19;;;;;;;3.10;2.40;;;25.40;99.90;;;;;;5030897;28;20433;-78
2022/09/03 09:48:55;;;;;;;5.40;2.50;;;25.60;99.90;;;;;;5029688;28;20442;-76
2022/09/03 09:51:32;;;;;;;7.63;2.80;;;25.60;99.90;;;;;;5013485;28;20486;-78
2022/09/03 09:54:17;;;;;;;3.77;2.00;;;25.40;99.90;;;;;;5031265;28;20868;-77
2022/09/03 09:56:45;;;;;;;2.30;2.10;;;25.00;98.60;;;;;;5030154;28;21257;-79
2022/09/03 09:59:14;;;;;;;9.10;2.80;;;24.80;99.90;;;;;;5031157;28;20491;-78
2022/09/03 10:01:44;;;;;;;2.30;2.10;;;24.60;99.90;;;;;;5029981;28;20450;-76
2022/09/03 10:04:21;;;;;;;4.07;2.30;;;24.40;99.60;;;;;;5014187;28;20947;-78
2022/09/03 10:06:55;;;;;;;2.83;2.37;;;24.30;99.90;;;;;;5031044;28;20428;-76
2022/09/03 10:09:32;;;;;;;3.47;2.30;;;24.50;99.90;;;;;;5031016;28;20434;-77
2022/09/03 10:12:34;;;;;;;4.30;2.90;;;24.30;99.90;;;;;;5031270;28;20502;-77
2022/09/03 10:15:25;;;;;;;3.80;2.37;;;24.20;99.90;;;;;;5029908;28;20424;-74
2022/09/03 10:18:14;;;;;;;6.40;2.50;;;24.20;99.90;;;;;;5029702;28;20422;-76
2022/09/03 10:20:40;;;;;;;5.43;2.33;;;24.40;99.90;;;;;;5030452;28;20438;-74
2022/09/03 10:23:16;;;;;;;3.23;2.50;;;24.10;99.90;;;;;;5030777;28;21006;-76
2022/09/03 10:25:42;;;;;;;2.33;2.13;;;24.10;99.90;;;;;;5031794;28;20449;-76
2022/09/03 10:28:09;;;;;;;4.40;2.40;;;24.00;99.90;;;;;;5031801;28;20409;-76
2022/09/03 10:31:07;;;;;;;4.43;2.70;;;24.00;99.90;;;;;;5031621;28;20476;-76
2022/09/03 10:33:41;;;;;;;8.80;2.77;;;24.00;99.90;;;;;;5024245;28;20435;-75
2022/09/03 10:36:23;;;;;;;4.70;3.00;;;23.80;99.90;;;;;;5030462;28;20544;-76
2022/09/03 10:39:09;;;;;;;2.57;2.37;;;23.60;99.90;;;;;;5030666;28;20546;-76
2022/09/03 10:42:02;;;;;;;3.03;2.67;;;23.60;99.90;;;;;;5030152;28;20496;-76
2022/09/03 10:44:48;;;;;;;3.93;3.00;;;23.60;99.90;;;;;;5030522;28;20457;-76
2022/09/03 10:47:35;;;;;;;3.20;2.90;;;23.90;99.90;;;;;;5028930;28;20488;-76
2022/09/03 10:50:14;;;;;;;3.10;2.67;;;24.10;99.90;;;;;;5029241;28;20505;-75
2022/09/03 10:53:04;;;;;;;3.03;2.73;;;24.40;99.90;;;;;;5028693;28;20953;-76
2022/09/03 10:56:04;;;;;;;5.20;2.93;;;24.50;99.90;;;;;;5028704;28;20529;-76
2022/09/03 10:58:42;;;;;;;3.63;3.33;;;24.50;99.90;;;;;;5028619;28;20408;-76
2022/09/03 11:01:45;;;;;;;2.90;2.70;;;24.30;99.90;;;;;;5028511;28;20426;-76
2022/09/03 11:04:44;;;;;;;2.93;2.67;;;24.20;99.90;;;;;;5026812;28;20425;-75
2022/09/03 11:07:16;;;;;;;4.03;3.00;;;24.10;99.90;;;;;;5026776;28;20433;-76
2022/09/03 11:09:51;;;;;;;6.40;2.93;;;24.10;99.90;;;;;;5028477;28;20437;-76
2022/09/03 11:12:25;;;;;;;3.43;2.67;;;24.10;99.90;;;;;;5028215;28;20458;-76
2022/09/03 11:15:04;;;;;;;2.67;2.50;;;24.00;99.90;;;;;;5028441;28;20420;-76
2022/09/03 11:17:38;;;;;;;7.00;3.27;;;24.00;99.90;;;;;;5028134;28;20476;-76
2022/09/03 11:20:24;;;;;;;4.50;3.40;;;23.90;99.90;;;;;;5029542;28;20413;-76
2022/09/03 11:22:56;;;;;;;4.93;3.20;;;23.90;99.90;;;;;;5026372;28;20433;-79
2022/09/03 11:25:27;;;;;;;2.57;2.37;;;23.80;99.90;;;;;;5028799;28;20426;-79
2022/09/03 11:28:23;;;;;;;5.60;2.73;;;23.70;99.90;;;;;;5028485;28;21189;-77
2022/09/03 11:31:05;;;;;;;3.07;2.80;;;23.60;99.90;;;;;;5026808;28;20445;-78
2022/09/03 11:33:34;;;;;;;4.67;3.27;;;23.40;99.90;;;;;;5028553;28;20911;-78
2022/09/03 11:36:01;;;;;;;3.60;2.90;;;23.30;99.90;;;;;;5026537;28;20468;-77
2022/09/03 11:38:30;;;;;;;8.80;2.60;;;23.10;99.90;;;;;;5028086;28;20509;-77
2022/09/03 11:41:27;;;;;;;2.77;2.57;;;23.00;99.90;;;;;;5027913;28;20443;-78
2022/09/03 11:43:53;;;;;;;3.40;3.10;;;22.70;99.90;;;;;;5026617;28;20422;-78
2022/09/03 11:46:22;;;;;;;4.50;3.60;;;22.50;99.90;;;;;;5026479;28;20473;-78
2022/09/03 11:48:50;;;;;;;3.37;3.17;;;22.40;99.90;;;;;;5026248;28;20471;-77
2022/09/03 11:51:36;;;;;;;4.90;3.33;;;22.30;99.90;;;;;;5028404;28;20454;-76
2022/09/03 11:54:10;;;;;;;3.57;3.27;;;22.20;99.90;;;;;;5027965;28;20423;-77
2022/09/03 11:56:35;;;;;;;6.17;3.90;;;22.00;99.90;;;;;;5027872;28;20825;-77
2022/09/03 11:59:14;;;;;;;5.20;3.90;;;21.90;99.90;;;;;;5026614;28;20424;-77
2022/09/03 12:01:55;;;;;;;4.40;4.00;;;21.70;99.90;;;;;;5028634;28;20193;-79
2022/09/03 12:04:45;;;;;;;2.50;2.00;;;21.60;99.90;;;;;;5025992;28;20435;-78
2022/09/03 12:07:29;;;;;;;3.70;1.80;;;21.00;99.90;;;;;;5028032;28;20451;-78
2022/09/03 12:10:04;;;;;;;2.00;1.50;;;20.30;99.90;;;;;;5027962;28;20451;-78
2022/09/03 12:12:44;;;;;;;1.83;1.10;;;19.40;99.90;;;;;;5028568;28;20444;-77
2022/09/03 12:15:47;;;;;;;6.97;1.50;;;18.90;99.90;;;;;;5026607;28;20480;-78
2022/09/03 12:18:22;;;;;;;5.27;1.37;;;18.50;99.90;;;;;;5027640;28;20426;-78
2022/09/03 12:21:01;;;;;;;1.50;1.30;;;18.30;99.90;;;;;;5027822;28;20433;-79
2022/09/03 12:23:28;;;;;;;2.23;1.00;;;18.00;99.90;;;;;;5026080;28;20454;-76
2022/09/03 12:25:54;;;;;;;5.20;1.33;;;17.40;99.90;;;;;;5027866;28;20510;-79
2022/09/03 12:28:22;;;;;;;1.40;1.30;;;17.30;99.90;;;;;;5026169;28;20877;-79
2022/09/03 12:30:52;;;;;;;2.87;1.10;;;17.20;99.90;;;;;;5025778;28;20769;-79
2022/09/03 12:33:19;;;;;;;1.10;1.00;;;17.20;99.90;;;;;;5027441;28;21064;-80
2022/09/03 12:35:59;;;;;;;3.13;1.17;;;17.00;99.90;;;;;;5027847;28;20470;-80
2022/09/03 12:38:28;;;;;;;1.00;0.90;;;16.80;99.90;;;;;;5027950;28;20449;-80
2022/09/03 12:40:54;;;;;;;1.50;0.80;;;16.70;99.90;;;;;;5027644;28;20461;-79
2022/09/03 12:43:26;;;;;;;1.17;1.07;;;16.50;99.90;;;;;;5009418;28;20943;-79
2022/09/03 12:45:53;;;;;;;2.43;1.10;;;16.40;99.90;;;;;;5027562;28;20439;-78
2022/09/03 12:48:19;;;;;;;2.90;1.10;;;16.40;99.90;;;;;;5025638;28;20435;-76
2022/09/03 12:50:46;;;;;;;3.20;1.10;;;16.50;99.90;;;;;;5025166;28;20941;-75
2022/09/03 12:53:24;;;;;;;1.50;1.10;;;16.60;99.90;;;;;;5026908;28;20421;-75
2022/09/03 12:55:58;;;;;;;3.13;1.00;;;16.70;99.90;;;;;;5027049;28;20866;-75
2022/09/03 12:58:27;;;;;;;2.37;1.50;;;16.90;99.90;;;;;;5026962;28;20473;-78
2022/09/03 13:01:10;;;;;;;2.37;1.23;;;17.20;99.90;;;;;;5026764;28;20445;-79
2022/09/03 13:04:10;;;;;;;3.63;1.20;;;17.40;99.90;;;;;;5026821;28;20421;-77
2022/09/03 13:07:12;;;;;;;1.57;0.93;;;17.50;99.90;;;;;;5026276;28;20431;-77
2022/09/03 13:09:41;;;;;;;1.47;0.80;;;17.50;99.90;;;;;;5026704;28;20572;-77
2022/09/03 13:12:19;;;;;;;2.07;0.70;;;17.50;99.90;;;;;;5027395;28;20551;-78
2022/09/03 13:14:47;;;;;;;1.10;0.80;;;17.70;99.90;;;;;;5028178;28;20452;-77
2022/09/03 13:17:35;;;;;;;1.63;0.80;;;17.50;99.90;;;;;;5027488;28;20938;-77
2022/09/03 13:20:30;;;;;;;1.00;0.60;;;17.70;99.90;;;;;;5029078;28;20420;-76